sensor_id;sensor_type;location;lat;lon;timestamp;P1;durP1;ratioP1;P2;durP2;ratioP2
24555;SDS011;12725;49.440;10.954;2023-09-07T00:00:45;4.30;;;2.33;;
24555;SDS011;12725;49.440;10.954;2023-09-07T00:04:46;3.38;;;1.67;;
24555;SDS011;12725;49.440;10.954;2023-09-07T00:08:46;2.33;;;1.87;;
24555;SDS011;12725;49.440;10.954;2023-09-07T00:17:43;3.50;;;1.88;;
24555;SDS011;12725;49.440;10.954;2023-09-07T00:21:44;7.28;;;1.98;;
24555;SDS011;12725;49.440;10.954;2023-09-07T00:25:44;3.20;;;1.83;;
24555;SDS011;12725;49.440;10.954;2023-09-07T00:29:45;2.83;;;2.13;;
24555;SDS011;12725;49.440;10.954;2023-09-07T00:33:45;2.22;;;1.92;;
24555;SDS011;12725;49.440;10.954;2023-09-07T00:37:45;2.50;;;1.77;;
24555;SDS011;12725;49.440;10.954;2023-09-07T00:41:46;2.63;;;1.88;;
24555;SDS011;12725;49.440;10.954;2023-09-07T00:45:46;2.53;;;1.70;;
24555;SDS011;12725;49.440;10.954;2023-09-07T00:49:47;2.72;;;1.85;;
24555;SDS011;12725;49.440;10.954;2023-09-07T00:53:47;2.85;;;1.80;;
24555;SDS011;12725;49.440;10.954;2023-09-07T00:57:48;3.38;;;2.20;;
24555;SDS011;12725;49.440;10.954;2023-09-07T01:01:49;3.25;;;2.08;;
24555;SDS011;12725;49.440;10.954;2023-09-07T01:05:56;3.13;;;1.60;;
24555;SDS011;12725;49.440;10.954;2023-09-07T01:09:57;2.97;;;1.52;;
24555;SDS011;12725;49.440;10.954;2023-09-07T01:13:59;2.85;;;1.92;;
24555;SDS011;12725;49.440;10.954;2023-09-07T01:18:00;3.53;;;1.83;;
24555;SDS011;12725;49.440;10.954;2023-09-07T01:22:01;3.13;;;2.20;;
24555;SDS011;12725;49.440;10.954;2023-09-07T01:26:02;2.67;;;2.08;;
24555;SDS011;12725;49.440;10.954;2023-09-07T01:30:03;4.03;;;2.15;;
24555;SDS011;12725;49.440;10.954;2023-09-07T01:34:04;4.80;;;2.35;;
24555;SDS011;12725;49.440;10.954;2023-09-07T01:38:06;3.60;;;2.33;;
24555;SDS011;12725;49.440;10.954;2023-09-07T01:42:06;1.93;;;1.60;;
24555;SDS011;12725;49.440;10.954;2023-09-07T01:46:07;3.47;;;2.30;;
24555;SDS011;12725;49.440;10.954;2023-09-07T01:50:07;4.13;;;1.80;;
24555;SDS011;12725;49.440;10.954;2023-09-07T01:54:08;4.32;;;1.90;;
24555;SDS011;12725;49.440;10.954;2023-09-07T01:58:09;2.58;;;1.77;;
24555;SDS011;12725;49.440;10.954;2023-09-07T02:02:10;2.15;;;1.95;;
24555;SDS011;12725;49.440;10.954;2023-09-07T02:06:10;3.42;;;1.70;;
24555;SDS011;12725;49.440;10.954;2023-09-07T02:10:10;2.05;;;1.88;;
24555;SDS011;12725;49.440;10.954;2023-09-07T02:14:11;2.75;;;1.48;;
24555;SDS011;12725;49.440;10.954;2023-09-07T02:18:11;7.95;;;2.45;;
24555;SDS011;12725;49.440;10.954;2023-09-07T02:22:12;4.53;;;2.03;;
24555;SDS011;12725;49.440;10.954;2023-09-07T02:26:12;2.05;;;1.70;;
24555;SDS011;12725;49.440;10.954;2023-09-07T02:30:12;2.95;;;1.73;;
24555;SDS011;12725;49.440;10.954;2023-09-07T02:34:13;3.00;;;2.27;;
24555;SDS011;12725;49.440;10.954;2023-09-07T02:38:13;4.50;;;2.43;;
24555;SDS011;12725;49.440;10.954;2023-09-07T02:42:13;3.30;;;2.42;;
24555;SDS011;12725;49.440;10.954;2023-09-07T02:46:14;4.30;;;2.10;;
24555;SDS011;12725;49.440;10.954;2023-09-07T02:50:14;2.40;;;1.83;;
24555;SDS011;12725;49.440;10.954;2023-09-07T02:54:16;3.40;;;1.85;;
24555;SDS011;12725;49.440;10.954;2023-09-07T02:58:16;2.07;;;1.70;;
24555;SDS011;12725;49.440;10.954;2023-09-07T03:02:16;1.90;;;1.40;;
24555;SDS011;12725;49.440;10.954;2023-09-07T03:06:17;3.57;;;1.83;;
24555;SDS011;12725;49.440;10.954;2023-09-07T03:10:17;2.67;;;1.85;;
24555;SDS011;12725;49.440;10.954;2023-09-07T03:14:18;4.10;;;1.92;;
24555;SDS011;12725;49.440;10.954;2023-09-07T03:18:18;2.23;;;1.70;;
24555;SDS011;12725;49.440;10.954;2023-09-07T03:22:19;2.72;;;2.15;;
24555;SDS011;12725;49.440;10.954;2023-09-07T03:26:19;3.57;;;2.10;;
24555;SDS011;12725;49.440;10.954;2023-09-07T03:30:19;2.67;;;1.92;;
24555;SDS011;12725;49.440;10.954;2023-09-07T03:34:20;2.45;;;1.98;;
24555;SDS011;12725;49.440;10.954;2023-09-07T03:38:21;2.78;;;1.75;;
24555;SDS011;12725;49.440;10.954;2023-09-07T03:42:21;2.25;;;1.70;;
24555;SDS011;12725;49.440;10.954;2023-09-07T03:46:22;2.83;;;2.25;;
24555;SDS011;12725;49.440;10.954;2023-09-07T03:50:22;5.77;;;2.60;;
24555;SDS011;12725;49.440;10.954;2023-09-07T03:54:22;4.15;;;2.00;;
24555;SDS011;12725;49.440;10.954;2023-09-07T03:58:23;4.13;;;2.22;;
24555;SDS011;12725;49.440;10.954;2023-09-07T04:02:23;3.05;;;1.88;;
24555;SDS011;12725;49.440;10.954;2023-09-07T04:06:24;3.95;;;2.40;;
24555;SDS011;12725;49.440;10.954;2023-09-07T04:10:24;2.80;;;2.03;;
24555;SDS011;12725;49.440;10.954;2023-09-07T04:14:25;4.23;;;2.53;;
24555;SDS011;12725;49.440;10.954;2023-09-07T04:18:25;2.27;;;1.80;;
24555;SDS011;12725;49.440;10.954;2023-09-07T04:22:25;4.00;;;2.20;;
24555;SDS011;12725;49.440;10.954;2023-09-07T04:26:26;12.30;;;1.87;;
24555;SDS011;12725;49.440;10.954;2023-09-07T04:30:26;6.72;;;2.67;;
24555;SDS011;12725;49.440;10.954;2023-09-07T04:34:27;19.48;;;3.67;;
24555;SDS011;12725;49.440;10.954;2023-09-07T04:38:27;14.15;;;4.90;;
24555;SDS011;12725;49.440;10.954;2023-09-07T04:42:27;20.33;;;4.53;;
24555;SDS011;12725;49.440;10.954;2023-09-07T04:46:28;24.75;;;4.50;;
24555;SDS011;12725;49.440;10.954;2023-09-07T04:50:28;23.57;;;3.90;;
24555;SDS011;12725;49.440;10.954;2023-09-07T04:54:28;13.52;;;3.03;;
24555;SDS011;12725;49.440;10.954;2023-09-07T04:58:29;4.47;;;2.30;;
24555;SDS011;12725;49.440;10.954;2023-09-07T05:02:30;3.38;;;1.98;;
24555;SDS011;12725;49.440;10.954;2023-09-07T05:06:30;5.45;;;2.35;;
24555;SDS011;12725;49.440;10.954;2023-09-07T05:10:34;2.75;;;1.92;;
24555;SDS011;12725;49.440;10.954;2023-09-07T05:14:34;3.05;;;1.90;;
24555;SDS011;12725;49.440;10.954;2023-09-07T05:18:35;4.10;;;2.10;;
24555;SDS011;12725;49.440;10.954;2023-09-07T05:22:35;4.75;;;2.30;;
24555;SDS011;12725;49.440;10.954;2023-09-07T05:26:39;2.55;;;2.17;;
24555;SDS011;12725;49.440;10.954;2023-09-07T05:30:40;17.30;;;2.50;;
24555;SDS011;12725;49.440;10.954;2023-09-07T05:34:41;10.00;;;2.65;;
24555;SDS011;12725;49.440;10.954;2023-09-07T05:38:41;3.95;;;2.25;;
24555;SDS011;12725;49.440;10.954;2023-09-07T05:42:42;4.13;;;2.53;;
24555;SDS011;12725;49.440;10.954;2023-09-07T05:46:42;6.78;;;2.25;;
24555;SDS011;12725;49.440;10.954;2023-09-07T05:50:44;4.33;;;2.40;;
24555;SDS011;12725;49.440;10.954;2023-09-07T05:54:45;4.45;;;2.78;;
24555;SDS011;12725;49.440;10.954;2023-09-07T05:58:47;7.18;;;2.60;;
24555;SDS011;12725;49.440;10.954;2023-09-07T06:02:50;6.07;;;3.03;;
24555;SDS011;12725;49.440;10.954;2023-09-07T06:06:54;14.90;;;2.85;;
24555;SDS011;12725;49.440;10.954;2023-09-07T06:10:54;3.40;;;3.00;;
24555;SDS011;12725;49.440;10.954;2023-09-07T06:14:56;4.40;;;2.67;;
24555;SDS011;12725;49.440;10.954;2023-09-07T06:18:56;4.00;;;2.67;;
24555;SDS011;12725;49.440;10.954;2023-09-07T06:22:56;6.80;;;3.28;;
24555;SDS011;12725;49.440;10.954;2023-09-07T06:26:57;4.23;;;2.40;;
24555;SDS011;12725;49.440;10.954;2023-09-07T06:30:57;6.47;;;3.50;;
24555;SDS011;12725;49.440;10.954;2023-09-07T06:34:57;10.23;;;2.90;;
24555;SDS011;12725;49.440;10.954;2023-09-07T06:38:58;6.00;;;3.85;;
24555;SDS011;12725;49.440;10.954;2023-09-07T06:42:59;6.30;;;2.75;;
24555;SDS011;12725;49.440;10.954;2023-09-07T06:47:00;4.47;;;2.97;;
24555;SDS011;12725;49.440;10.954;2023-09-07T06:51:01;5.75;;;3.15;;
24555;SDS011;12725;49.440;10.954;2023-09-07T06:55:04;18.30;;;3.05;;
24555;SDS011;12725;49.440;10.954;2023-09-07T06:59:05;5.93;;;3.53;;
24555;SDS011;12725;49.440;10.954;2023-09-07T07:03:05;4.85;;;3.10;;
24555;SDS011;12725;49.440;10.954;2023-09-07T07:07:06;3.83;;;2.70;;
24555;SDS011;12725;49.440;10.954;2023-09-07T07:11:06;6.80;;;2.92;;
24555;SDS011;12725;49.440;10.954;2023-09-07T07:15:08;4.85;;;3.25;;
24555;SDS011;12725;49.440;10.954;2023-09-07T07:19:08;5.25;;;2.65;;
24555;SDS011;12725;49.440;10.954;2023-09-07T07:23:10;4.47;;;2.60;;
24555;SDS011;12725;49.440;10.954;2023-09-07T07:27:15;5.32;;;2.92;;
24555;SDS011;12725;49.440;10.954;2023-09-07T07:31:18;4.32;;;2.70;;
24555;SDS011;12725;49.440;10.954;2023-09-07T07:35:18;6.15;;;3.13;;
24555;SDS011;12725;49.440;10.954;2023-09-07T07:39:19;3.55;;;2.65;;
24555;SDS011;12725;49.440;10.954;2023-09-07T07:43:20;3.47;;;2.55;;
24555;SDS011;12725;49.440;10.954;2023-09-07T07:47:21;6.57;;;2.58;;
24555;SDS011;12725;49.440;10.954;2023-09-07T07:51:21;6.38;;;3.08;;
24555;SDS011;12725;49.440;10.954;2023-09-07T07:55:22;6.07;;;2.63;;
24555;SDS011;12725;49.440;10.954;2023-09-07T07:59:25;4.13;;;2.13;;
24555;SDS011;12725;49.440;10.954;2023-09-07T08:03:26;4.88;;;2.63;;
24555;SDS011;12725;49.440;10.954;2023-09-07T08:07:26;6.78;;;2.47;;
24555;SDS011;12725;49.440;10.954;2023-09-07T08:11:27;5.68;;;2.53;;
24555;SDS011;12725;49.440;10.954;2023-09-07T08:15:29;8.55;;;2.67;;
24555;SDS011;12725;49.440;10.954;2023-09-07T08:19:29;4.90;;;2.70;;
24555;SDS011;12725;49.440;10.954;2023-09-07T08:23:31;3.97;;;2.50;;
24555;SDS011;12725;49.440;10.954;2023-09-07T08:27:31;3.70;;;2.65;;
24555;SDS011;12725;49.440;10.954;2023-09-07T08:31:32;3.10;;;2.20;;
24555;SDS011;12725;49.440;10.954;2023-09-07T08:35:33;2.63;;;2.13;;
24555;SDS011;12725;49.440;10.954;2023-09-07T08:39:35;2.80;;;1.88;;
24555;SDS011;12725;49.440;10.954;2023-09-07T08:43:45;5.80;;;2.35;;
24555;SDS011;12725;49.440;10.954;2023-09-07T08:47:46;2.63;;;1.83;;
24555;SDS011;12725;49.440;10.954;2023-09-07T08:51:47;3.35;;;2.13;;
24555;SDS011;12725;49.440;10.954;2023-09-07T08:55:48;1.80;;;1.52;;
24555;SDS011;12725;49.440;10.954;2023-09-07T08:59:49;3.00;;;1.95;;
24555;SDS011;12725;49.440;10.954;2023-09-07T09:03:49;2.70;;;1.50;;
24555;SDS011;12725;49.440;10.954;2023-09-07T09:08:00;2.80;;;1.67;;
24555;SDS011;12725;49.440;10.954;2023-09-07T09:12:10;5.38;;;1.60;;
24555;SDS011;12725;49.440;10.954;2023-09-07T09:16:12;1.77;;;1.45;;
24555;SDS011;12725;49.440;10.954;2023-09-07T09:20:22;1.25;;;1.15;;
24555;SDS011;12725;49.440;10.954;2023-09-07T09:24:23;2.47;;;1.80;;
24555;SDS011;12725;49.440;10.954;2023-09-07T09:28:23;1.92;;;1.58;;
24555;SDS011;12725;49.440;10.954;2023-09-07T09:32:26;2.03;;;1.55;;
24555;SDS011;12725;49.440;10.954;2023-09-07T09:36:32;4.15;;;1.90;;
24555;SDS011;12725;49.440;10.954;2023-09-07T09:40:33;1.50;;;1.35;;
24555;SDS011;12725;49.440;10.954;2023-09-07T09:44:36;2.08;;;1.40;;
24555;SDS011;12725;49.440;10.954;2023-09-07T09:48:37;2.25;;;1.38;;
24555;SDS011;12725;49.440;10.954;2023-09-07T09:52:38;1.88;;;1.45;;
24555;SDS011;12725;49.440;10.954;2023-09-07T09:56:39;1.20;;;1.08;;
24555;SDS011;12725;49.440;10.954;2023-09-07T10:00:44;2.42;;;1.77;;
24555;SDS011;12725;49.440;10.954;2023-09-07T10:04:45;2.50;;;1.65;;
24555;SDS011;12725;49.440;10.954;2023-09-07T10:09:04;2.83;;;1.50;;
24555;SDS011;12725;49.440;10.954;2023-09-07T10:13:06;2.63;;;1.77;;
24555;SDS011;12725;49.440;10.954;2023-09-07T10:17:07;2.08;;;1.60;;
24555;SDS011;12725;49.440;10.954;2023-09-07T10:21:09;1.73;;;1.38;;
24555;SDS011;12725;49.440;10.954;2023-09-07T10:25:19;3.03;;;1.80;;
24555;SDS011;12725;49.440;10.954;2023-09-07T10:29:21;1.92;;;1.58;;
24555;SDS011;12725;49.440;10.954;2023-09-07T10:33:23;2.05;;;1.23;;
24555;SDS011;12725;49.440;10.954;2023-09-07T10:37:27;3.15;;;1.63;;
24555;SDS011;12725;49.440;10.954;2023-09-07T10:41:28;7.35;;;1.58;;
24555;SDS011;12725;49.440;10.954;2023-09-07T10:45:43;1.20;;;1.10;;
24555;SDS011;12725;49.440;10.954;2023-09-07T10:49:44;2.50;;;1.67;;
24555;SDS011;12725;49.440;10.954;2023-09-07T10:53:44;1.75;;;1.60;;
24555;SDS011;12725;49.440;10.954;2023-09-07T10:57:45;2.58;;;1.67;;
24555;SDS011;12725;49.440;10.954;2023-09-07T11:01:46;1.85;;;1.38;;
24555;SDS011;12725;49.440;10.954;2023-09-07T11:05:48;2.40;;;1.38;;
24555;SDS011;12725;49.440;10.954;2023-09-07T11:09:51;2.45;;;1.30;;
24555;SDS011;12725;49.440;10.954;2023-09-07T11:13:53;1.85;;;1.20;;
24555;SDS011;12725;49.440;10.954;2023-09-07T11:17:54;4.25;;;2.15;;
24555;SDS011;12725;49.440;10.954;2023-09-07T11:21:54;3.00;;;1.40;;
24555;SDS011;12725;49.440;10.954;2023-09-07T11:25:55;1.88;;;1.20;;
24555;SDS011;12725;49.440;10.954;2023-09-07T11:29:56;1.40;;;1.10;;
24555;SDS011;12725;49.440;10.954;2023-09-07T11:33:56;3.05;;;2.25;;
24555;SDS011;12725;49.440;10.954;2023-09-07T11:38:01;1.35;;;1.25;;
24555;SDS011;12725;49.440;10.954;2023-09-07T11:42:04;1.20;;;1.10;;
24555;SDS011;12725;49.440;10.954;2023-09-07T11:46:04;1.42;;;1.10;;
24555;SDS011;12725;49.440;10.954;2023-09-07T11:50:05;2.53;;;1.40;;
24555;SDS011;12725;49.440;10.954;2023-09-07T11:54:06;2.63;;;1.90;;
24555;SDS011;12725;49.440;10.954;2023-09-07T11:58:07;1.77;;;1.30;;
24555;SDS011;12725;49.440;10.954;2023-09-07T12:02:07;1.73;;;1.17;;
24555;SDS011;12725;49.440;10.954;2023-09-07T12:06:11;1.80;;;1.58;;
24555;SDS011;12725;49.440;10.954;2023-09-07T12:10:11;3.03;;;1.67;;
24555;SDS011;12725;49.440;10.954;2023-09-07T12:14:13;1.83;;;1.50;;
24555;SDS011;12725;49.440;10.954;2023-09-07T12:18:14;2.80;;;1.57;;
24555;SDS011;12725;49.440;10.954;2023-09-07T12:22:14;2.67;;;2.13;;
24555;SDS011;12725;49.440;10.954;2023-09-07T12:26:14;1.60;;;1.20;;
24555;SDS011;12725;49.440;10.954;2023-09-07T12:30:20;1.50;;;1.15;;
24555;SDS011;12725;49.440;10.954;2023-09-07T12:34:22;4.03;;;1.52;;
24555;SDS011;12725;49.440;10.954;2023-09-07T12:38:22;2.78;;;1.45;;
24555;SDS011;12725;49.440;10.954;2023-09-07T12:42:27;2.78;;;1.52;;
24555;SDS011;12725;49.440;10.954;2023-09-07T12:46:28;2.50;;;1.20;;
24555;SDS011;12725;49.440;10.954;2023-09-07T12:50:28;2.60;;;1.50;;
24555;SDS011;12725;49.440;10.954;2023-09-07T12:54:28;2.10;;;1.67;;
24555;SDS011;12725;49.440;10.954;2023-09-07T12:58:29;1.53;;;1.17;;
24555;SDS011;12725;49.440;10.954;2023-09-07T13:02:29;3.15;;;1.58;;
24555;SDS011;12725;49.440;10.954;2023-09-07T13:06:29;1.87;;;1.47;;
24555;SDS011;12725;49.440;10.954;2023-09-07T13:10:30;1.73;;;1.30;;
24555;SDS011;12725;49.440;10.954;2023-09-07T13:14:31;1.47;;;1.30;;
24555;SDS011;12725;49.440;10.954;2023-09-07T13:18:31;1.63;;;1.53;;
24555;SDS011;12725;49.440;10.954;2023-09-07T13:22:31;3.50;;;1.90;;
24555;SDS011;12725;49.440;10.954;2023-09-07T13:26:32;1.30;;;1.20;;
24555;SDS011;12725;49.440;10.954;2023-09-07T13:30:32;1.30;;;1.20;;
24555;SDS011;12725;49.440;10.954;2023-09-07T13:34:33;1.77;;;1.57;;
24555;SDS011;12725;49.440;10.954;2023-09-07T13:38:33;1.63;;;1.50;;
24555;SDS011;12725;49.440;10.954;2023-09-07T13:42:34;2.07;;;1.40;;
24555;SDS011;12725;49.440;10.954;2023-09-07T13:46:34;2.10;;;1.27;;
24555;SDS011;12725;49.440;10.954;2023-09-07T13:50:34;1.63;;;1.17;;
24555;SDS011;12725;49.440;10.954;2023-09-07T13:54:35;2.00;;;1.27;;
24555;SDS011;12725;49.440;10.954;2023-09-07T13:58:35;1.87;;;1.47;;
24555;SDS011;12725;49.440;10.954;2023-09-07T14:02:35;2.50;;;1.93;;
24555;SDS011;12725;49.440;10.954;2023-09-07T14:06:36;2.08;;;1.42;;
24555;SDS011;12725;49.440;10.954;2023-09-07T14:10:36;1.70;;;1.37;;
24555;SDS011;12725;49.440;10.954;2023-09-07T14:14:37;1.77;;;1.40;;
24555;SDS011;12725;49.440;10.954;2023-09-07T14:18:38;1.67;;;1.35;;
24555;SDS011;12725;49.440;10.954;2023-09-07T14:22:38;1.43;;;1.30;;
24555;SDS011;12725;49.440;10.954;2023-09-07T14:26:39;4.20;;;1.77;;
24555;SDS011;12725;49.440;10.954;2023-09-07T14:30:39;2.50;;;2.00;;
24555;SDS011;12725;49.440;10.954;2023-09-07T14:34:39;1.97;;;1.47;;
24555;SDS011;12725;49.440;10.954;2023-09-07T14:38:40;2.17;;;1.80;;
24555;SDS011;12725;49.440;10.954;2023-09-07T14:42:44;3.53;;;1.52;;
24555;SDS011;12725;49.440;10.954;2023-09-07T14:46:45;1.57;;;1.30;;
24555;SDS011;12725;49.440;10.954;2023-09-07T14:50:47;4.28;;;2.22;;
24555;SDS011;12725;49.440;10.954;2023-09-07T14:54:47;2.43;;;1.20;;
24555;SDS011;12725;49.440;10.954;2023-09-07T14:58:48;1.73;;;1.30;;
24555;SDS011;12725;49.440;10.954;2023-09-07T15:02:48;2.53;;;1.40;;
24555;SDS011;12725;49.440;10.954;2023-09-07T15:06:49;1.97;;;1.47;;
24555;SDS011;12725;49.440;10.954;2023-09-07T15:10:49;1.37;;;1.23;;
24555;SDS011;12725;49.440;10.954;2023-09-07T15:14:50;2.40;;;1.17;;
24555;SDS011;12725;49.440;10.954;2023-09-07T15:18:50;2.17;;;1.40;;
24555;SDS011;12725;49.440;10.954;2023-09-07T15:22:53;2.80;;;1.95;;
24555;SDS011;12725;49.440;10.954;2023-09-07T15:26:54;1.77;;;1.20;;
24555;SDS011;12725;49.440;10.954;2023-09-07T15:30:55;1.95;;;1.45;;
24555;SDS011;12725;49.440;10.954;2023-09-07T15:34:55;1.73;;;1.33;;
24555;SDS011;12725;49.440;10.954;2023-09-07T15:38:55;3.20;;;1.57;;
24555;SDS011;12725;49.440;10.954;2023-09-07T15:42:56;4.00;;;1.40;;
24555;SDS011;12725;49.440;10.954;2023-09-07T15:46:56;2.80;;;2.00;;
24555;SDS011;12725;49.440;10.954;2023-09-07T15:50:56;2.03;;;1.45;;
24555;SDS011;12725;49.440;10.954;2023-09-07T15:54:57;2.20;;;1.27;;
24555;SDS011;12725;49.440;10.954;2023-09-07T15:58:57;2.03;;;1.77;;
24555;SDS011;12725;49.440;10.954;2023-09-07T16:02:58;2.33;;;1.42;;
24555;SDS011;12725;49.440;10.954;2023-09-07T16:06:58;2.80;;;1.80;;
24555;SDS011;12725;49.440;10.954;2023-09-07T16:10:59;1.30;;;1.10;;
24555;SDS011;12725;49.440;10.954;2023-09-07T16:15:00;2.25;;;1.60;;
24555;SDS011;12725;49.440;10.954;2023-09-07T16:19:00;1.43;;;1.33;;
24555;SDS011;12725;49.440;10.954;2023-09-07T16:23:01;3.60;;;1.70;;
24555;SDS011;12725;49.440;10.954;2023-09-07T16:27:02;1.90;;;1.50;;
24555;SDS011;12725;49.440;10.954;2023-09-07T16:31:02;1.45;;;1.27;;
24555;SDS011;12725;49.440;10.954;2023-09-07T16:35:03;1.90;;;1.60;;
24555;SDS011;12725;49.440;10.954;2023-09-07T16:39:05;1.85;;;1.35;;
24555;SDS011;12725;49.440;10.954;2023-09-07T16:43:05;2.57;;;1.37;;
24555;SDS011;12725;49.440;10.954;2023-09-07T16:47:06;5.47;;;1.60;;
24555;SDS011;12725;49.440;10.954;2023-09-07T16:51:06;2.90;;;1.40;;
24555;SDS011;12725;49.440;10.954;2023-09-07T16:55:06;1.40;;;1.08;;
24555;SDS011;12725;49.440;10.954;2023-09-07T16:59:07;1.50;;;1.20;;
24555;SDS011;12725;49.440;10.954;2023-09-07T17:03:08;5.03;;;1.52;;
24555;SDS011;12725;49.440;10.954;2023-09-07T17:07:08;2.10;;;1.67;;
24555;SDS011;12725;49.440;10.954;2023-09-07T17:11:09;3.23;;;2.03;;
24555;SDS011;12725;49.440;10.954;2023-09-07T17:15:10;1.70;;;1.45;;
24555;SDS011;12725;49.440;10.954;2023-09-07T17:19:11;1.98;;;1.42;;
24555;SDS011;12725;49.440;10.954;2023-09-07T17:23:11;1.80;;;1.33;;
24555;SDS011;12725;49.440;10.954;2023-09-07T17:27:13;2.28;;;1.73;;
24555;SDS011;12725;49.440;10.954;2023-09-07T17:31:14;3.20;;;1.67;;
24555;SDS011;12725;49.440;10.954;2023-09-07T17:35:15;1.65;;;1.25;;
24555;SDS011;12725;49.440;10.954;2023-09-07T17:39:15;2.17;;;1.85;;
24555;SDS011;12725;49.440;10.954;2023-09-07T17:43:16;2.87;;;1.83;;
24555;SDS011;12725;49.440;10.954;2023-09-07T17:47:16;2.57;;;1.37;;
24555;SDS011;12725;49.440;10.954;2023-09-07T17:51:17;2.65;;;1.60;;
24555;SDS011;12725;49.440;10.954;2023-09-07T17:55:18;1.85;;;1.50;;
24555;SDS011;12725;49.440;10.954;2023-09-07T17:59:18;2.00;;;1.37;;
24555;SDS011;12725;49.440;10.954;2023-09-07T18:03:21;5.03;;;1.80;;
24555;SDS011;12725;49.440;10.954;2023-09-07T18:07:25;1.98;;;1.45;;
24555;SDS011;12725;49.440;10.954;2023-09-07T18:11:26;3.53;;;2.13;;
24555;SDS011;12725;49.440;10.954;2023-09-07T18:15:28;2.42;;;1.42;;
24555;SDS011;12725;49.440;10.954;2023-09-07T18:19:29;1.70;;;1.25;;
24555;SDS011;12725;49.440;10.954;2023-09-07T18:23:32;2.47;;;1.83;;
24555;SDS011;12725;49.440;10.954;2023-09-07T18:27:33;4.72;;;2.15;;
24555;SDS011;12725;49.440;10.954;2023-09-07T18:31:34;4.00;;;2.00;;
24555;SDS011;12725;49.440;10.954;2023-09-07T18:35:35;4.28;;;2.60;;
24555;SDS011;12725;49.440;10.954;2023-09-07T18:39:36;3.20;;;2.00;;
24555;SDS011;12725;49.440;10.954;2023-09-07T18:43:37;2.55;;;1.58;;
24555;SDS011;12725;49.440;10.954;2023-09-07T18:47:37;2.75;;;1.52;;
24555;SDS011;12725;49.440;10.954;2023-09-07T18:51:43;2.95;;;1.67;;
24555;SDS011;12725;49.440;10.954;2023-09-07T18:55:46;2.45;;;1.67;;
24555;SDS011;12725;49.440;10.954;2023-09-07T18:59:47;3.15;;;1.98;;
24555;SDS011;12725;49.440;10.954;2023-09-07T19:03:52;2.38;;;1.45;;
24555;SDS011;12725;49.440;10.954;2023-09-07T19:07:53;3.58;;;1.98;;
24555;SDS011;12725;49.440;10.954;2023-09-07T19:11:54;3.00;;;2.28;;
24555;SDS011;12725;49.440;10.954;2023-09-07T19:15:54;3.20;;;2.03;;
24555;SDS011;12725;49.440;10.954;2023-09-07T19:19:55;2.53;;;1.42;;
24555;SDS011;12725;49.440;10.954;2023-09-07T19:23:57;2.10;;;1.65;;
24555;SDS011;12725;49.440;10.954;2023-09-07T19:27:57;3.47;;;2.17;;
24555;SDS011;12725;49.440;10.954;2023-09-07T19:31:58;2.05;;;1.55;;
24555;SDS011;12725;49.440;10.954;2023-09-07T19:35:59;2.78;;;1.40;;
24555;SDS011;12725;49.440;10.954;2023-09-07T19:39:59;4.22;;;1.67;;
24555;SDS011;12725;49.440;10.954;2023-09-07T19:44:03;1.92;;;1.45;;
24555;SDS011;12725;49.440;10.954;2023-09-07T19:48:04;6.07;;;1.83;;
24555;SDS011;12725;49.440;10.954;2023-09-07T19:52:05;1.95;;;1.50;;
24555;SDS011;12725;49.440;10.954;2023-09-07T19:56:06;3.75;;;2.13;;
24555;SDS011;12725;49.440;10.954;2023-09-07T20:00:14;4.05;;;1.63;;
24555;SDS011;12725;49.440;10.954;2023-09-07T20:04:14;1.98;;;1.60;;
24555;SDS011;12725;49.440;10.954;2023-09-07T20:08:15;2.85;;;1.92;;
24555;SDS011;12725;49.440;10.954;2023-09-07T20:12:15;4.15;;;1.65;;
24555;SDS011;12725;49.440;10.954;2023-09-07T20:16:16;2.65;;;1.75;;
24555;SDS011;12725;49.440;10.954;2023-09-07T20:20:16;2.55;;;1.67;;
24555;SDS011;12725;49.440;10.954;2023-09-07T20:24:17;2.17;;;1.83;;
24555;SDS011;12725;49.440;10.954;2023-09-07T20:28:17;4.60;;;1.80;;
24555;SDS011;12725;49.440;10.954;2023-09-07T20:32:18;3.60;;;1.97;;
24555;SDS011;12725;49.440;10.954;2023-09-07T20:36:18;4.90;;;2.40;;
24555;SDS011;12725;49.440;10.954;2023-09-07T20:40:19;3.90;;;2.33;;
24555;SDS011;12725;49.440;10.954;2023-09-07T20:44:20;3.25;;;1.95;;
24555;SDS011;12725;49.440;10.954;2023-09-07T20:48:21;3.22;;;2.78;;
24555;SDS011;12725;49.440;10.954;2023-09-07T20:52:21;3.63;;;2.08;;
24555;SDS011;12725;49.440;10.954;2023-09-07T20:56:22;3.45;;;1.80;;
24555;SDS011;12725;49.440;10.954;2023-09-07T21:00:22;2.35;;;1.85;;
24555;SDS011;12725;49.440;10.954;2023-09-07T21:04:22;4.22;;;2.50;;
24555;SDS011;12725;49.440;10.954;2023-09-07T21:08:23;2.53;;;1.98;;
24555;SDS011;12725;49.440;10.954;2023-09-07T21:12:23;4.60;;;2.87;;
24555;SDS011;12725;49.440;10.954;2023-09-07T21:16:24;2.83;;;2.05;;
24555;SDS011;12725;49.440;10.954;2023-09-07T21:20:24;2.87;;;2.20;;
24555;SDS011;12725;49.440;10.954;2023-09-07T21:24:25;2.63;;;2.03;;
24555;SDS011;12725;49.440;10.954;2023-09-07T21:28:25;2.90;;;1.73;;
24555;SDS011;12725;49.440;10.954;2023-09-07T21:32:26;2.97;;;2.03;;
24555;SDS011;12725;49.440;10.954;2023-09-07T21:36:26;3.20;;;2.20;;
24555;SDS011;12725;49.440;10.954;2023-09-07T21:40:27;3.42;;;2.50;;
24555;SDS011;12725;49.440;10.954;2023-09-07T21:44:27;4.13;;;2.78;;
24555;SDS011;12725;49.440;10.954;2023-09-07T21:48:27;5.30;;;2.60;;
24555;SDS011;12725;49.440;10.954;2023-09-07T21:52:28;6.97;;;2.53;;
24555;SDS011;12725;49.440;10.954;2023-09-07T21:56:28;2.70;;;2.05;;
24555;SDS011;12725;49.440;10.954;2023-09-07T22:00:29;5.00;;;2.33;;
24555;SDS011;12725;49.440;10.954;2023-09-07T22:04:29;3.87;;;2.20;;
24555;SDS011;12725;49.440;10.954;2023-09-07T22:08:29;5.35;;;3.17;;
24555;SDS011;12725;49.440;10.954;2023-09-07T22:12:30;7.15;;;2.88;;
24555;SDS011;12725;49.440;10.954;2023-09-07T22:16:31;7.57;;;2.28;;
24555;SDS011;12725;49.440;10.954;2023-09-07T22:20:31;3.08;;;2.60;;
24555;SDS011;12725;49.440;10.954;2023-09-07T22:24:31;3.23;;;2.30;;
24555;SDS011;12725;49.440;10.954;2023-09-07T22:28:32;2.97;;;1.83;;
24555;SDS011;12725;49.440;10.954;2023-09-07T22:32:32;2.55;;;1.92;;
24555;SDS011;12725;49.440;10.954;2023-09-07T22:36:32;3.55;;;2.40;;
24555;SDS011;12725;49.440;10.954;2023-09-07T22:40:33;5.07;;;2.83;;
24555;SDS011;12725;49.440;10.954;2023-09-07T22:44:34;2.83;;;2.10;;
24555;SDS011;12725;49.440;10.954;2023-09-07T22:48:35;4.63;;;2.43;;
24555;SDS011;12725;49.440;10.954;2023-09-07T22:52:35;5.68;;;2.85;;
24555;SDS011;12725;49.440;10.954;2023-09-07T22:56:36;4.03;;;2.17;;
24555;SDS011;12725;49.440;10.954;2023-09-07T23:00:37;5.32;;;2.67;;
24555;SDS011;12725;49.440;10.954;2023-09-07T23:04:38;3.30;;;2.42;;
24555;SDS011;12725;49.440;10.954;2023-09-07T23:08:38;5.63;;;2.20;;
24555;SDS011;12725;49.440;10.954;2023-09-07T23:12:39;5.43;;;2.40;;
24555;SDS011;12725;49.440;10.954;2023-09-07T23:16:39;3.55;;;2.67;;
24555;SDS011;12725;49.440;10.954;2023-09-07T23:20:40;3.53;;;2.33;;
24555;SDS011;12725;49.440;10.954;2023-09-07T23:24:42;3.65;;;1.98;;
24555;SDS011;12725;49.440;10.954;2023-09-07T23:28:43;4.63;;;3.15;;
24555;SDS011;12725;49.440;10.954;2023-09-07T23:32:43;3.63;;;2.78;;
24555;SDS011;12725;49.440;10.954;2023-09-07T23:36:44;3.85;;;1.98;;
24555;SDS011;12725;49.440;10.954;2023-09-07T23:40:44;9.33;;;3.20;;
24555;SDS011;12725;49.440;10.954;2023-09-07T23:44:45;4.00;;;2.75;;
24555;SDS011;12725;49.440;10.954;2023-09-07T23:48:45;4.00;;;2.83;;
24555;SDS011;12725;49.440;10.954;2023-09-07T23:52:45;5.40;;;2.87;;